sensor_id;sensor_type;location;lat;lon;timestamp;pressure;altitude;pressure_sealevel;temperature;humidity
3812;BME280;1921;49.368;11.068;2023-04-24T00:00:16;96644.31;;;11.16;100.00
3812;BME280;1921;49.368;11.068;2023-04-24T00:02:44;96683.25;;;11.31;100.00
3812;BME280;1921;49.368;11.068;2023-04-24T00:05:17;96628.72;;;10.96;100.00
3812;BME280;1921;49.368;11.068;2023-04-24T00:07:44;96647.97;;;10.95;100.00
3812;BME280;1921;49.368;11.068;2023-04-24T00:10:11;96611.09;;;10.72;100.00
3812;BME280;1921;49.368;11.068;2023-04-24T00:12:38;96656.38;;;11.04;100.00
3812;BME280;1921;49.368;11.068;2023-04-24T00:15:04;96639.56;;;11.00;100.00
3812;BME280;1921;49.368;11.068;2023-04-24T00:17:30;96681.44;;;11.25;100.00
3812;BME280;1921;49.368;11.068;2023-04-24T00:19:57;96693.69;;;11.31;100.00
3812;BME280;1921;49.368;11.068;2023-04-24T00:22:30;96637.94;;;10.92;100.00
3812;BME280;1921;49.368;11.068;2023-04-24T00:24:56;96641.16;;;10.94;100.00
3812;BME280;1921;49.368;11.068;2023-04-24T00:27:23;96651.59;;;11.01;100.00
3812;BME280;1921;49.368;11.068;2023-04-24T00:29:48;96703.31;;;11.24;100.00
3812;BME280;1921;49.368;11.068;2023-04-24T00:32:14;96645.97;;;10.84;100.00
3812;BME280;1921;49.368;11.068;2023-04-24T00:34:41;96646.19;;;10.76;100.00
3812;BME280;1921;49.368;11.068;2023-04-24T00:37:07;96648.00;;;10.49;100.00
3812;BME280;1921;49.368;11.068;2023-04-24T00:39:33;96687.72;;;10.77;100.00
3812;BME280;1921;49.368;11.068;2023-04-24T00:41:59;96680.47;;;10.73;100.00
3812;BME280;1921;49.368;11.068;2023-04-24T00:44:25;96616.72;;;10.49;100.00
3812;BME280;1921;49.368;11.068;2023-04-24T00:46:51;96681.09;;;10.95;100.00
3812;BME280;1921;49.368;11.068;2023-04-24T00:49:23;96630.94;;;10.73;100.00
3812;BME280;1921;49.368;11.068;2023-04-24T00:51:49;96667.44;;;11.06;100.00
3812;BME280;1921;49.368;11.068;2023-04-24T00:54:17;96653.56;;;10.99;100.00
3812;BME280;1921;49.368;11.068;2023-04-24T00:56:44;96683.25;;;11.11;100.00
3812;BME280;1921;49.368;11.068;2023-04-24T00:59:12;96659.00;;;10.97;100.00
3812;BME280;1921;49.368;11.068;2023-04-24T01:01:39;96636.94;;;10.80;100.00
3812;BME280;1921;49.368;11.068;2023-04-24T01:04:08;96684.47;;;11.09;100.00
3812;BME280;1921;49.368;11.068;2023-04-24T01:06:35;96675.25;;;11.06;100.00
3812;BME280;1921;49.368;11.068;2023-04-24T01:09:04;96663.22;;;10.98;100.00
3812;BME280;1921;49.368;11.068;2023-04-24T01:11:30;96645.16;;;10.90;100.00
3812;BME280;1921;49.368;11.068;2023-04-24T01:13:56;96607.28;;;10.68;100.00
3812;BME280;1921;49.368;11.068;2023-04-24T01:16:22;96609.50;;;10.71;100.00
3812;BME280;1921;49.368;11.068;2023-04-24T01:18:48;96650.00;;;10.93;100.00
3812;BME280;1921;49.368;11.068;2023-04-24T01:21:15;96628.34;;;10.73;100.00
3812;BME280;1921;49.368;11.068;2023-04-24T01:23:46;96654.59;;;10.85;100.00
3812;BME280;1921;49.368;11.068;2023-04-24T01:26:13;96671.25;;;10.90;100.00
3812;BME280;1921;49.368;11.068;2023-04-24T01:28:39;96687.31;;;10.94;100.00
3812;BME280;1921;49.368;11.068;2023-04-24T01:31:05;96651.00;;;10.72;100.00
3812;BME280;1921;49.368;11.068;2023-04-24T01:33:32;96689.50;;;10.90;100.00
3812;BME280;1921;49.368;11.068;2023-04-24T01:35:58;96620.53;;;10.46;100.00
3812;BME280;1921;49.368;11.068;2023-04-24T01:38:24;96630.53;;;10.49;100.00
3812;BME280;1921;49.368;11.068;2023-04-24T01:40:51;96668.66;;;10.70;100.00
3812;BME280;1921;49.368;11.068;2023-04-24T01:43:17;96647.00;;;10.63;100.00
3812;BME280;1921;49.368;11.068;2023-04-24T01:45:43;96688.94;;;10.82;100.00
3812;BME280;1921;49.368;11.068;2023-04-24T01:48:09;96641.97;;;10.55;100.00
3812;BME280;1921;49.368;11.068;2023-04-24T01:50:36;96612.50;;;10.41;100.00
3812;BME280;1921;49.368;11.068;2023-04-24T01:53:02;96630.16;;;10.52;100.00
3812;BME280;1921;49.368;11.068;2023-04-24T01:55:28;96644.78;;;10.73;100.00
3812;BME280;1921;49.368;11.068;2023-04-24T01:57:56;96615.53;;;10.51;100.00
3812;BME280;1921;49.368;11.068;2023-04-24T02:00:23;96653.41;;;10.81;100.00
3812;BME280;1921;49.368;11.068;2023-04-24T02:02:50;96607.69;;;10.51;100.00
3812;BME280;1921;49.368;11.068;2023-04-24T02:05:16;96660.03;;;10.83;100.00
3812;BME280;1921;49.368;11.068;2023-04-24T02:07:41;96642.97;;;10.74;100.00
3812;BME280;1921;49.368;11.068;2023-04-24T02:10:08;96645.19;;;10.77;100.00
3812;BME280;1921;49.368;11.068;2023-04-24T02:12:34;96657.00;;;10.86;100.00
3812;BME280;1921;49.368;11.068;2023-04-24T02:15:00;96649.19;;;10.86;100.00
3812;BME280;1921;49.368;11.068;2023-04-24T02:17:25;96578.25;;;10.44;100.00
3812;BME280;1921;49.368;11.068;2023-04-24T02:19:52;96617.72;;;10.61;100.00
3812;BME280;1921;49.368;11.068;2023-04-24T02:22:17;96581.44;;;10.40;100.00
3812;BME280;1921;49.368;11.068;2023-04-24T02:24:43;96592.44;;;10.48;100.00
3812;BME280;1921;49.368;11.068;2023-04-24T02:27:09;96635.16;;;10.74;100.00
3812;BME280;1921;49.368;11.068;2023-04-24T02:29:35;96608.88;;;10.49;100.00
3812;BME280;1921;49.368;11.068;2023-04-24T02:32:01;96582.84;;;10.29;100.00
3812;BME280;1921;49.368;11.068;2023-04-24T02:34:27;96602.69;;;10.43;100.00
3812;BME280;1921;49.368;11.068;2023-04-24T02:36:52;96566.59;;;10.27;100.00
3812;BME280;1921;49.368;11.068;2023-04-24T02:39:19;96633.97;;;10.70;100.00
3812;BME280;1921;49.368;11.068;2023-04-24T02:41:45;96621.91;;;10.56;100.00
3812;BME280;1921;49.368;11.068;2023-04-24T02:44:11;96579.84;;;10.32;100.00
3812;BME280;1921;49.368;11.068;2023-04-24T02:46:37;96623.94;;;10.60;100.00
3812;BME280;1921;49.368;11.068;2023-04-24T02:49:03;96632.38;;;10.69;100.00
3812;BME280;1921;49.368;11.068;2023-04-24T02:51:29;96604.69;;;10.48;100.00
3812;BME280;1921;49.368;11.068;2023-04-24T02:53:55;96634.34;;;10.67;100.00
3812;BME280;1921;49.368;11.068;2023-04-24T02:56:21;96635.38;;;10.66;100.00
3812;BME280;1921;49.368;11.068;2023-04-24T02:58:47;96581.66;;;10.32;100.00
3812;BME280;1921;49.368;11.068;2023-04-24T03:01:13;96596.66;;;10.36;100.00
3812;BME280;1921;49.368;11.068;2023-04-24T03:03:39;96615.53;;;10.51;100.00
3812;BME280;1921;49.368;11.068;2023-04-24T03:06:06;96620.75;;;10.51;100.00
3812;BME280;1921;49.368;11.068;2023-04-24T03:08:33;96589.25;;;10.40;100.00
3812;BME280;1921;49.368;11.068;2023-04-24T03:10:59;96607.50;;;10.53;100.00
3812;BME280;1921;49.368;11.068;2023-04-24T03:13:25;96615.91;;;10.62;100.00
3812;BME280;1921;49.368;11.068;2023-04-24T03:15:51;96624.53;;;10.69;100.00
3812;BME280;1921;49.368;11.068;2023-04-24T03:18:17;96630.75;;;10.68;100.00
3812;BME280;1921;49.368;11.068;2023-04-24T03:20:45;96573.03;;;10.31;100.00
3812;BME280;1921;49.368;11.068;2023-04-24T03:23:12;96584.63;;;10.42;100.00
3812;BME280;1921;49.368;11.068;2023-04-24T03:25:37;96551.53;;;10.16;100.00
3812;BME280;1921;49.368;11.068;2023-04-24T03:28:03;96588.47;;;10.39;100.00
3812;BME280;1921;49.368;11.068;2023-04-24T03:30:29;96627.53;;;10.66;100.00
3812;BME280;1921;49.368;11.068;2023-04-24T03:32:55;96614.09;;;10.56;100.00
3812;BME280;1921;49.368;11.068;2023-04-24T03:35:21;96626.53;;;10.67;100.00
3812;BME280;1921;49.368;11.068;2023-04-24T03:37:47;96596.47;;;10.38;100.00
3812;BME280;1921;49.368;11.068;2023-04-24T03:40:13;96577.81;;;10.34;100.00
3812;BME280;1921;49.368;11.068;2023-04-24T03:42:39;96604.88;;;10.46;100.00
3812;BME280;1921;49.368;11.068;2023-04-24T03:45:06;96628.94;;;10.55;100.00
3812;BME280;1921;49.368;11.068;2023-04-24T03:47:32;96577.41;;;10.24;100.00
3812;BME280;1921;49.368;11.068;2023-04-24T03:49:57;96605.50;;;10.35;100.00
3812;BME280;1921;49.368;11.068;2023-04-24T03:52:23;96587.84;;;10.24;100.00
3812;BME280;1921;49.368;11.068;2023-04-24T03:54:49;96640.16;;;10.49;100.00
3812;BME280;1921;49.368;11.068;2023-04-24T03:57:15;96641.97;;;10.48;100.00
3812;BME280;1921;49.368;11.068;2023-04-24T03:59:41;96645.59;;;10.47;100.00
3812;BME280;1921;49.368;11.068;2023-04-24T04:02:06;96633.34;;;10.41;100.00
3812;BME280;1921;49.368;11.068;2023-04-24T04:04:33;96634.56;;;10.39;100.00
3812;BME280;1921;49.368;11.068;2023-04-24T04:06:58;96645.19;;;10.50;100.00
3812;BME280;1921;49.368;11.068;2023-04-24T04:09:27;96639.78;;;10.52;100.00
3812;BME280;1921;49.368;11.068;2023-04-24T04:11:53;96637.97;;;10.52;100.00
3812;BME280;1921;49.368;11.068;2023-04-24T04:14:19;96624.75;;;10.41;100.00
3812;BME280;1921;49.368;11.068;2023-04-24T04:16:44;96617.50;;;10.36;100.00
3812;BME280;1921;49.368;11.068;2023-04-24T04:19:10;96637.78;;;10.47;100.00
3812;BME280;1921;49.368;11.068;2023-04-24T04:21:36;96637.78;;;10.47;100.00
3812;BME280;1921;49.368;11.068;2023-04-24T04:24:02;96632.34;;;10.42;100.00
3812;BME280;1921;49.368;11.068;2023-04-24T04:26:28;96613.31;;;10.42;100.00
3812;BME280;1921;49.368;11.068;2023-04-24T04:28:54;96603.50;;;10.37;100.00
3812;BME280;1921;49.368;11.068;2023-04-24T04:31:22;96641.78;;;10.57;100.00
3812;BME280;1921;49.368;11.068;2023-04-24T04:33:48;96592.66;;;10.27;100.00
3812;BME280;1921;49.368;11.068;2023-04-24T04:36:14;96631.53;;;10.48;100.00
3812;BME280;1921;49.368;11.068;2023-04-24T04:38:40;96590.03;;;10.20;100.00
3812;BME280;1921;49.368;11.068;2023-04-24T04:41:08;96641.59;;;10.51;100.00
3812;BME280;1921;49.368;11.068;2023-04-24T04:43:34;96642.38;;;10.52;100.00
3812;BME280;1921;49.368;11.068;2023-04-24T04:46:00;96567.38;;;10.08;100.00
3812;BME280;1921;49.368;11.068;2023-04-24T04:48:27;96600.28;;;10.35;100.00
3812;BME280;1921;49.368;11.068;2023-04-24T04:50:53;96579.22;;;10.23;100.00
3812;BME280;1921;49.368;11.068;2023-04-24T04:53:18;96613.31;;;10.55;100.00
3812;BME280;1921;49.368;11.068;2023-04-24T04:55:44;96531.91;;;10.07;100.00
3812;BME280;1921;49.368;11.068;2023-04-24T04:58:10;96622.13;;;10.67;100.00
3812;BME280;1921;49.368;11.068;2023-04-24T05:00:36;96622.31;;;10.66;100.00
3812;BME280;1921;49.368;11.068;2023-04-24T05:03:02;96618.31;;;10.63;100.00
3812;BME280;1921;49.368;11.068;2023-04-24T05:05:29;96645.41;;;10.75;100.00
3812;BME280;1921;49.368;11.068;2023-04-24T05:07:55;96642.16;;;10.80;100.00
3812;BME280;1921;49.368;11.068;2023-04-24T05:10:21;96650.38;;;10.90;100.00
3812;BME280;1921;49.368;11.068;2023-04-24T05:12:46;96600.47;;;10.60;100.00
3812;BME280;1921;49.368;11.068;2023-04-24T05:15:12;96655.78;;;11.09;100.00
3812;BME280;1921;49.368;11.068;2023-04-24T05:17:38;96599.47;;;10.74;100.00
3812;BME280;1921;49.368;11.068;2023-04-24T05:20:06;96665.19;;;11.23;100.00
3812;BME280;1921;49.368;11.068;2023-04-24T05:22:32;96631.50;;;11.01;100.00
3812;BME280;1921;49.368;11.068;2023-04-24T05:24:58;96613.66;;;10.92;100.00
3812;BME280;1921;49.368;11.068;2023-04-24T05:27:24;96646.34;;;11.08;100.00
3812;BME280;1921;49.368;11.068;2023-04-24T05:29:50;96665.16;;;11.29;100.00
3812;BME280;1921;49.368;11.068;2023-04-24T05:32:16;96678.00;;;11.38;100.00
3812;BME280;1921;49.368;11.068;2023-04-24T05:34:42;96678.81;;;11.38;100.00
3812;BME280;1921;49.368;11.068;2023-04-24T05:37:08;96648.72;;;11.22;100.00
3812;BME280;1921;49.368;11.068;2023-04-24T05:39:35;96639.06;;;11.29;100.00
3812;BME280;1921;49.368;11.068;2023-04-24T05:42:02;96642.84;;;11.40;100.00
3812;BME280;1921;49.368;11.068;2023-04-24T05:44:28;96628.47;;;11.24;100.00
3812;BME280;1921;49.368;11.068;2023-04-24T05:46:54;96535.06;;;10.75;100.00
3812;BME280;1921;49.368;11.068;2023-04-24T05:49:21;96624.75;;;11.45;100.00
3812;BME280;1921;49.368;11.068;2023-04-24T05:51:47;96614.28;;;11.52;100.00
3812;BME280;1921;49.368;11.068;2023-04-24T05:54:12;96678.72;;;12.09;100.00
3812;BME280;1921;49.368;11.068;2023-04-24T05:56:39;96642.75;;;12.11;100.00
3812;BME280;1921;49.368;11.068;2023-04-24T05:59:05;96653.03;;;12.06;100.00
3812;BME280;1921;49.368;11.068;2023-04-24T06:01:31;96664.66;;;12.42;100.00
3812;BME280;1921;49.368;11.068;2023-04-24T06:03:57;96655.88;;;12.61;100.00
3812;BME280;1921;49.368;11.068;2023-04-24T06:06:24;96645.03;;;12.58;100.00
3812;BME280;1921;49.368;11.068;2023-04-24T06:08:50;96700.75;;;13.08;100.00
3812;BME280;1921;49.368;11.068;2023-04-24T06:11:15;96677.78;;;13.10;100.00
3812;BME280;1921;49.368;11.068;2023-04-24T06:13:41;96629.94;;;13.03;100.00
3812;BME280;1921;49.368;11.068;2023-04-24T06:16:07;96625.94;;;13.01;100.00
3812;BME280;1921;49.368;11.068;2023-04-24T06:18:33;96633.16;;;13.05;100.00
3812;BME280;1921;49.368;11.068;2023-04-24T06:20:59;96647.00;;;13.31;100.00
3812;BME280;1921;49.368;11.068;2023-04-24T06:23:25;96652.19;;;13.37;100.00
3812;BME280;1921;49.368;11.068;2023-04-24T06:25:51;96677.13;;;13.58;100.00
3812;BME280;1921;49.368;11.068;2023-04-24T06:28:17;96571.06;;;12.94;100.00
3812;BME280;1921;49.368;11.068;2023-04-24T06:30:42;96504.03;;;12.56;100.00
3812;BME280;1921;49.368;11.068;2023-04-24T06:33:09;96664.25;;;13.57;98.24
3812;BME280;1921;49.368;11.068;2023-04-24T06:35:36;96670.72;;;13.54;97.62
3812;BME280;1921;49.368;11.068;2023-04-24T06:38:03;96694.50;;;13.71;97.96
3812;BME280;1921;49.368;11.068;2023-04-24T06:40:29;96701.06;;;13.62;96.02
3812;BME280;1921;49.368;11.068;2023-04-24T06:42:55;96687.75;;;13.45;92.93
3812;BME280;1921;49.368;11.068;2023-04-24T06:45:20;96718.88;;;13.53;89.19
3812;BME280;1921;49.368;11.068;2023-04-24T06:47:47;96674.69;;;13.20;91.48
3812;BME280;1921;49.368;11.068;2023-04-24T06:50:12;96726.72;;;13.35;90.28
3812;BME280;1921;49.368;11.068;2023-04-24T06:52:40;96682.56;;;12.95;91.36
3812;BME280;1921;49.368;11.068;2023-04-24T06:55:06;96627.63;;;12.70;90.56
3812;BME280;1921;49.368;11.068;2023-04-24T06:57:32;96704.09;;;13.22;88.71
3812;BME280;1921;49.368;11.068;2023-04-24T06:59:58;96689.88;;;13.11;87.15
3812;BME280;1921;49.368;11.068;2023-04-24T07:02:24;96704.41;;;13.07;84.31
3812;BME280;1921;49.368;11.068;2023-04-24T07:04:50;96698.06;;;13.15;83.99
3812;BME280;1921;49.368;11.068;2023-04-24T07:07:16;96694.81;;;13.19;82.54
3812;BME280;1921;49.368;11.068;2023-04-24T07:09:42;96707.59;;;13.09;81.86
3812;BME280;1921;49.368;11.068;2023-04-24T07:12:08;96688.19;;;13.24;81.02
3812;BME280;1921;49.368;11.068;2023-04-24T07:14:36;96693.56;;;13.47;77.36
3812;BME280;1921;49.368;11.068;2023-04-24T07:17:06;96750.06;;;13.98;75.21
3812;BME280;1921;49.368;11.068;2023-04-24T07:19:35;96722.59;;;13.64;76.83
3812;BME280;1921;49.368;11.068;2023-04-24T07:22:01;96764.22;;;13.72;73.56
3812;BME280;1921;49.368;11.068;2023-04-24T07:24:28;96686.56;;;12.98;70.41
3812;BME280;1921;49.368;11.068;2023-04-24T07:26:54;96702.63;;;12.76;73.89
3812;BME280;1921;49.368;11.068;2023-04-24T07:29:20;96748.25;;;13.12;74.12
3812;BME280;1921;49.368;11.068;2023-04-24T07:31:47;96770.19;;;13.42;71.80
3812;BME280;1921;49.368;11.068;2023-04-24T07:34:12;96753.97;;;13.02;72.92
3812;BME280;1921;49.368;11.068;2023-04-24T07:36:38;96727.69;;;12.90;71.92
3812;BME280;1921;49.368;11.068;2023-04-24T07:39:05;96763.50;;;13.22;73.21
3812;BME280;1921;49.368;11.068;2023-04-24T07:41:31;96632.66;;;12.47;68.71
3812;BME280;1921;49.368;11.068;2023-04-24T07:43:58;96724.16;;;13.03;68.46
3812;BME280;1921;49.368;11.068;2023-04-24T07:46:25;96725.06;;;12.90;67.41
3812;BME280;1921;49.368;11.068;2023-04-24T07:48:51;96666.13;;;12.63;68.74
3812;BME280;1921;49.368;11.068;2023-04-24T07:51:17;96759.34;;;13.57;69.63
3812;BME280;1921;49.368;11.068;2023-04-24T07:53:43;96560.63;;;12.26;64.17
3812;BME280;1921;49.368;11.068;2023-04-24T07:56:09;96640.63;;;13.02;65.50
3812;BME280;1921;49.368;11.068;2023-04-24T07:58:35;96667.59;;;13.27;64.53
3812;BME280;1921;49.368;11.068;2023-04-24T08:01:01;96689.72;;;13.50;64.74
3812;BME280;1921;49.368;11.068;2023-04-24T08:03:26;96715.63;;;13.76;63.54
3812;BME280;1921;49.368;11.068;2023-04-24T08:05:52;96709.66;;;13.87;60.22
3812;BME280;1921;49.368;11.068;2023-04-24T08:08:22;96787.91;;;14.69;61.94
3812;BME280;1921;49.368;11.068;2023-04-24T08:10:48;96714.88;;;14.36;62.94
3812;BME280;1921;49.368;11.068;2023-04-24T08:13:14;96623.09;;;13.76;61.58
3812;BME280;1921;49.368;11.068;2023-04-24T08:15:40;96734.75;;;14.73;59.38
3812;BME280;1921;49.368;11.068;2023-04-24T08:18:05;96725.16;;;14.67;62.36
3812;BME280;1921;49.368;11.068;2023-04-24T08:20:31;96793.19;;;15.22;58.71
3812;BME280;1921;49.368;11.068;2023-04-24T08:22:57;96764.59;;;14.91;58.19
3812;BME280;1921;49.368;11.068;2023-04-24T08:25:23;96764.84;;;14.71;57.83
3812;BME280;1921;49.368;11.068;2023-04-24T08:27:50;96743.94;;;13.67;60.12
3812;BME280;1921;49.368;11.068;2023-04-24T08:30:17;96791.47;;;14.08;59.10
3812;BME280;1921;49.368;11.068;2023-04-24T08:32:43;96759.88;;;13.84;62.16
3812;BME280;1921;49.368;11.068;2023-04-24T08:35:09;96805.69;;;14.00;60.85
3812;BME280;1921;49.368;11.068;2023-04-24T08:37:35;96740.38;;;13.80;61.43
3812;BME280;1921;49.368;11.068;2023-04-24T08:40:10;96773.66;;;14.28;58.97
3812;BME280;1921;49.368;11.068;2023-04-24T08:42:37;96717.16;;;14.62;56.64
3812;BME280;1921;49.368;11.068;2023-04-24T08:45:04;96799.69;;;15.43;55.31
3812;BME280;1921;49.368;11.068;2023-04-24T08:47:31;96779.25;;;15.57;55.26
3812;BME280;1921;49.368;11.068;2023-04-24T08:49:58;96808.72;;;16.06;56.37
3812;BME280;1921;49.368;11.068;2023-04-24T08:52:25;96788.31;;;16.25;52.96
3812;BME280;1921;49.368;11.068;2023-04-24T08:54:52;96800.88;;;16.34;53.42
3812;BME280;1921;49.368;11.068;2023-04-24T08:57:19;96781.81;;;16.27;52.61
3812;BME280;1921;49.368;11.068;2023-04-24T08:59:45;96809.38;;;16.65;52.54
3812;BME280;1921;49.368;11.068;2023-04-24T09:02:12;96764.22;;;16.16;51.26
3812;BME280;1921;49.368;11.068;2023-04-24T09:04:41;96776.50;;;15.87;52.09
3812;BME280;1921;49.368;11.068;2023-04-24T09:07:08;96718.69;;;15.05;52.69
3812;BME280;1921;49.368;11.068;2023-04-24T09:09:35;96692.63;;;14.68;52.80
3812;BME280;1921;49.368;11.068;2023-04-24T09:12:01;96726.69;;;14.98;55.41
3812;BME280;1921;49.368;11.068;2023-04-24T09:14:29;96724.19;;;14.50;56.64
3812;BME280;1921;49.368;11.068;2023-04-24T09:16:56;96484.13;;;12.92;55.69
3812;BME280;1921;49.368;11.068;2023-04-24T09:19:22;96695.09;;;14.51;55.71
3812;BME280;1921;49.368;11.068;2023-04-24T09:21:48;96492.97;;;13.69;56.85
3812;BME280;1921;49.368;11.068;2023-04-24T09:24:19;96643.84;;;15.66;52.98
3812;BME280;1921;49.368;11.068;2023-04-24T09:26:48;96676.25;;;15.83;52.01
3812;BME280;1921;49.368;11.068;2023-04-24T09:29:16;96639.81;;;15.75;51.66
3812;BME280;1921;49.368;11.068;2023-04-24T09:31:43;96569.19;;;15.27;50.95
3812;BME280;1921;49.368;11.068;2023-04-24T09:34:09;96710.38;;;16.07;50.49
3812;BME280;1921;49.368;11.068;2023-04-24T09:36:41;96611.38;;;14.62;52.13
3812;BME280;1921;49.368;11.068;2023-04-24T09:39:10;96635.56;;;14.22;54.02
3812;BME280;1921;49.368;11.068;2023-04-24T09:41:57;96756.97;;;15.24;53.71
3812;BME280;1921;49.368;11.068;2023-04-24T09:44:26;96690.13;;;15.55;53.06
3812;BME280;1921;49.368;11.068;2023-04-24T09:46:58;96765.16;;;16.67;49.49
3812;BME280;1921;49.368;11.068;2023-04-24T09:49:33;96674.19;;;16.42;48.96
3812;BME280;1921;49.368;11.068;2023-04-24T09:52:10;96690.59;;;16.78;48.63
3812;BME280;1921;49.368;11.068;2023-04-24T09:54:37;96734.66;;;17.33;48.40
3812;BME280;1921;49.368;11.068;2023-04-24T09:57:03;96787.34;;;17.84;47.94
3812;BME280;1921;49.368;11.068;2023-04-24T09:59:30;96794.94;;;17.13;49.77
3812;BME280;1921;49.368;11.068;2023-04-24T10:01:56;96775.03;;;16.72;49.22
3812;BME280;1921;49.368;11.068;2023-04-24T10:04:26;96718.47;;;15.53;49.86
3812;BME280;1921;49.368;11.068;2023-04-24T10:06:55;96684.56;;;15.05;51.60
3812;BME280;1921;49.368;11.068;2023-04-24T10:09:24;96704.66;;;15.34;51.68
3812;BME280;1921;49.368;11.068;2023-04-24T10:11:52;96811.53;;;16.28;48.51
3812;BME280;1921;49.368;11.068;2023-04-24T10:14:24;96779.63;;;15.84;48.84
3812;BME280;1921;49.368;11.068;2023-04-24T10:17:01;96686.28;;;15.34;48.29
3812;BME280;1921;49.368;11.068;2023-04-24T10:19:48;96692.75;;;14.73;49.43
3812;BME280;1921;49.368;11.068;2023-04-24T10:22:15;96770.47;;;15.28;48.10
3812;BME280;1921;49.368;11.068;2023-04-24T10:24:43;96731.06;;;15.28;46.15
3812;BME280;1921;49.368;11.068;2023-04-24T10:27:10;96633.75;;;14.76;46.18
3812;BME280;1921;49.368;11.068;2023-04-24T10:29:36;96654.88;;;14.81;47.46
3812;BME280;1921;49.368;11.068;2023-04-24T10:32:07;96766.47;;;15.84;47.55
3812;BME280;1921;49.368;11.068;2023-04-24T10:34:32;96346.13;;;13.64;46.05
3812;BME280;1921;49.368;11.068;2023-04-24T10:36:58;96690.19;;;16.24;44.96
3812;BME280;1921;49.368;11.068;2023-04-24T10:39:24;96613.81;;;15.62;45.56
3812;BME280;1921;49.368;11.068;2023-04-24T10:41:50;96652.13;;;15.34;44.71
3812;BME280;1921;49.368;11.068;2023-04-24T10:44:18;96773.50;;;15.95;45.26
3812;BME280;1921;49.368;11.068;2023-04-24T10:46:54;96481.13;;;13.79;47.03
3812;BME280;1921;49.368;11.068;2023-04-24T10:49:31;96700.41;;;15.57;44.42
3812;BME280;1921;49.368;11.068;2023-04-24T10:52:03;96833.25;;;17.04;43.49
3812;BME280;1921;49.368;11.068;2023-04-24T10:54:35;96814.91;;;17.26;42.35
3812;BME280;1921;49.368;11.068;2023-04-24T10:59:52;96795.34;;;16.48;45.86
3812;BME280;1921;49.368;11.068;2023-04-24T11:02:39;96820.84;;;15.48;49.52
3812;BME280;1921;49.368;11.068;2023-04-24T11:05:14;96874.63;;;14.92;53.28
3812;BME280;1921;49.368;11.068;2023-04-24T11:08:15;96869.34;;;14.44;53.44
3812;BME280;1921;49.368;11.068;2023-04-24T11:10:46;96754.97;;;13.51;53.81
3812;BME280;1921;49.368;11.068;2023-04-24T11:13:16;96663.28;;;12.89;52.44
3812;BME280;1921;49.368;11.068;2023-04-24T11:15:42;96600.25;;;12.48;52.52
3812;BME280;1921;49.368;11.068;2023-04-24T11:18:15;96746.38;;;13.44;53.13
3812;BME280;1921;49.368;11.068;2023-04-24T11:20:44;96782.44;;;14.04;51.09
3812;BME280;1921;49.368;11.068;2023-04-24T11:23:13;96708.19;;;13.11;50.89
3812;BME280;1921;49.368;11.068;2023-04-24T11:25:39;96758.94;;;13.60;51.27
3812;BME280;1921;49.368;11.068;2023-04-24T11:28:05;96759.28;;;13.64;50.94
3812;BME280;1921;49.368;11.068;2023-04-24T11:30:34;96876.66;;;14.90;49.57
3812;BME280;1921;49.368;11.068;2023-04-24T11:33:04;96777.97;;;14.71;48.40
3812;BME280;1921;49.368;11.068;2023-04-24T11:35:36;96590.28;;;14.15;47.24
3812;BME280;1921;49.368;11.068;2023-04-24T11:38:04;96571.22;;;14.85;43.66
3812;BME280;1921;49.368;11.068;2023-04-24T11:40:31;96734.81;;;16.64;40.95
3812;BME280;1921;49.368;11.068;2023-04-24T11:42:56;96494.75;;;14.93;41.89
3812;BME280;1921;49.368;11.068;2023-04-24T11:45:30;96771.03;;;16.57;41.85
3812;BME280;1921;49.368;11.068;2023-04-24T11:47:56;96749.28;;;16.33;41.92
3812;BME280;1921;49.368;11.068;2023-04-24T11:50:25;96760.22;;;16.42;41.62
3812;BME280;1921;49.368;11.068;2023-04-24T11:52:55;96858.94;;;16.56;42.65
3812;BME280;1921;49.368;11.068;2023-04-24T11:57:51;96607.66;;;13.37;47.07
3812;BME280;1921;49.368;11.068;2023-04-24T12:00:24;96811.31;;;13.79;49.36
3812;BME280;1921;49.368;11.068;2023-04-24T12:03:22;96912.84;;;14.51;49.50
3812;BME280;1921;49.368;11.068;2023-04-24T12:05:48;96895.03;;;14.60;48.87
3812;BME280;1921;49.368;11.068;2023-04-24T12:08:28;96869.47;;;14.86;47.80
3812;BME280;1921;49.368;11.068;2023-04-24T12:10:54;96861.25;;;15.35;48.43
3812;BME280;1921;49.368;11.068;2023-04-24T12:13:19;96888.66;;;15.81;46.32
3812;BME280;1921;49.368;11.068;2023-04-24T12:15:45;96877.78;;;16.25;44.53
3812;BME280;1921;49.368;11.068;2023-04-24T12:18:14;96888.03;;;16.38;45.17
3812;BME280;1921;49.368;11.068;2023-04-24T12:20:42;96854.22;;;16.18;43.99
3812;BME280;1921;49.368;11.068;2023-04-24T12:23:08;96877.19;;;16.46;43.55
3812;BME280;1921;49.368;11.068;2023-04-24T12:25:34;96896.19;;;16.36;43.63
3812;BME280;1921;49.368;11.068;2023-04-24T12:30:31;96919.53;;;15.86;44.41
3812;BME280;1921;49.368;11.068;2023-04-24T12:33:01;96884.16;;;15.47;44.78
3812;BME280;1921;49.368;11.068;2023-04-24T12:35:31;96878.75;;;15.42;44.82
3812;BME280;1921;49.368;11.068;2023-04-24T12:38:13;96908.28;;;15.25;46.43
3812;BME280;1921;49.368;11.068;2023-04-24T12:40:40;96870.63;;;15.01;45.32
3812;BME280;1921;49.368;11.068;2023-04-24T12:43:19;96862.03;;;14.64;45.48
3812;BME280;1921;49.368;11.068;2023-04-24T12:45:47;96913.72;;;15.12;45.44
3812;BME280;1921;49.368;11.068;2023-04-24T12:48:13;96870.69;;;14.83;44.93
3812;BME280;1921;49.368;11.068;2023-04-24T12:50:43;96884.97;;;15.17;45.21
3812;BME280;1921;49.368;11.068;2023-04-24T12:53:09;96787.94;;;14.80;45.33
3812;BME280;1921;49.368;11.068;2023-04-24T12:55:35;96931.78;;;16.04;44.65
3812;BME280;1921;49.368;11.068;2023-04-24T12:58:01;96910.16;;;16.02;44.56
3812;BME280;1921;49.368;11.068;2023-04-24T13:00:28;96936.69;;;16.12;44.94
3812;BME280;1921;49.368;11.068;2023-04-24T13:02:54;96884.09;;;16.00;44.66
3812;BME280;1921;49.368;11.068;2023-04-24T13:05:20;96923.09;;;16.15;44.48
3812;BME280;1921;49.368;11.068;2023-04-24T13:07:46;96901.81;;;16.05;44.40
3812;BME280;1921;49.368;11.068;2023-04-24T13:10:11;96891.44;;;16.74;44.18
3812;BME280;1921;49.368;11.068;2023-04-24T13:12:39;96888.00;;;16.73;43.00